sensor_id;sensor_type;location;lat;lon;timestamp;P1;durP1;ratioP1;P2;durP2;ratioP2
21543;SDS011;10933;50.754;11.508;2023-06-24T00:02:11;6.47;;;5.88;;
21543;SDS011;10933;50.754;11.508;2023-06-24T00:04:37;6.03;;;5.72;;
21543;SDS011;10933;50.754;11.508;2023-06-24T00:07:03;6.72;;;6.32;;
21543;SDS011;10933;50.754;11.508;2023-06-24T00:09:29;6.95;;;6.35;;
21543;SDS011;10933;50.754;11.508;2023-06-24T00:11:56;5.82;;;5.53;;
21543;SDS011;10933;50.754;11.508;2023-06-24T00:14:23;5.90;;;5.60;;
21543;SDS011;10933;50.754;11.508;2023-06-24T00:16:51;5.97;;;5.60;;
21543;SDS011;10933;50.754;11.508;2023-06-24T00:19:26;6.40;;;5.97;;
21543;SDS011;10933;50.754;11.508;2023-06-24T00:21:52;6.95;;;6.25;;
21543;SDS011;10933;50.754;11.508;2023-06-24T00:24:19;7.03;;;6.63;;
21543;SDS011;10933;50.754;11.508;2023-06-24T00:26:53;8.32;;;6.18;;
21543;SDS011;10933;50.754;11.508;2023-06-24T00:29:20;7.40;;;6.70;;
21543;SDS011;10933;50.754;11.508;2023-06-24T00:31:46;7.07;;;6.68;;
21543;SDS011;10933;50.754;11.508;2023-06-24T00:34:12;10.85;;;7.05;;
21543;SDS011;10933;50.754;11.508;2023-06-24T00:36:44;8.35;;;7.85;;
21543;SDS011;10933;50.754;11.508;2023-06-24T00:39:12;8.77;;;8.15;;
21543;SDS011;10933;50.754;11.508;2023-06-24T00:41:38;8.30;;;7.47;;
21543;SDS011;10933;50.754;11.508;2023-06-24T00:44:04;7.65;;;7.05;;
21543;SDS011;10933;50.754;11.508;2023-06-24T00:46:30;8.52;;;7.72;;
21543;SDS011;10933;50.754;11.508;2023-06-24T00:48:59;10.32;;;7.47;;
21543;SDS011;10933;50.754;11.508;2023-06-24T00:51:27;8.10;;;7.18;;
21543;SDS011;10933;50.754;11.508;2023-06-24T00:53:56;12.77;;;6.85;;
21543;SDS011;10933;50.754;11.508;2023-06-24T00:56:25;7.82;;;7.32;;
21543;SDS011;10933;50.754;11.508;2023-06-24T00:58:59;7.22;;;6.72;;
21543;SDS011;10933;50.754;11.508;2023-06-24T01:01:34;7.43;;;6.88;;
21543;SDS011;10933;50.754;11.508;2023-06-24T01:04:06;6.43;;;6.13;;
21543;SDS011;10933;50.754;11.508;2023-06-24T01:06:34;7.18;;;6.68;;
21543;SDS011;10933;50.754;11.508;2023-06-24T01:09:01;8.65;;;7.45;;
21543;SDS011;10933;50.754;11.508;2023-06-24T01:11:30;9.38;;;7.85;;
21543;SDS011;10933;50.754;11.508;2023-06-24T01:13:56;8.40;;;7.90;;
21543;SDS011;10933;50.754;11.508;2023-06-24T01:16:26;8.48;;;7.97;;
21543;SDS011;10933;50.754;11.508;2023-06-24T01:19:00;8.52;;;8.02;;
21543;SDS011;10933;50.754;11.508;2023-06-24T01:21:59;8.45;;;7.95;;
21543;SDS011;10933;50.754;11.508;2023-06-24T01:24:55;8.15;;;7.65;;
21543;SDS011;10933;50.754;11.508;2023-06-24T01:30:26;9.43;;;8.82;;
21543;SDS011;10933;50.754;11.508;2023-06-24T01:33:19;9.82;;;8.93;;
21543;SDS011;10933;50.754;11.508;2023-06-24T01:35:50;9.40;;;8.80;;
21543;SDS011;10933;50.754;11.508;2023-06-24T01:38:25;10.25;;;9.45;;
21543;SDS011;10933;50.754;11.508;2023-06-24T01:41:01;10.02;;;9.43;;
21543;SDS011;10933;50.754;11.508;2023-06-24T01:43:29;11.50;;;9.30;;
21543;SDS011;10933;50.754;11.508;2023-06-24T01:45:57;9.82;;;9.00;;
21543;SDS011;10933;50.754;11.508;2023-06-24T01:48:25;9.93;;;9.23;;
21543;SDS011;10933;50.754;11.508;2023-06-24T01:53:23;9.57;;;8.98;;
21543;SDS011;10933;50.754;11.508;2023-06-24T01:55:52;9.88;;;8.85;;
21543;SDS011;10933;50.754;11.508;2023-06-24T01:58:20;10.10;;;9.40;;
21543;SDS011;10933;50.754;11.508;2023-06-24T02:00:47;10.15;;;9.50;;
21543;SDS011;10933;50.754;11.508;2023-06-24T02:03:15;11.20;;;10.18;;
21543;SDS011;10933;50.754;11.508;2023-06-24T02:05:42;11.32;;;8.73;;
21543;SDS011;10933;50.754;11.508;2023-06-24T02:08:11;9.88;;;9.27;;
21543;SDS011;10933;50.754;11.508;2023-06-24T02:10:39;12.93;;;9.68;;
21543;SDS011;10933;50.754;11.508;2023-06-24T02:13:07;10.98;;;10.15;;
21543;SDS011;10933;50.754;11.508;2023-06-24T02:15:35;10.98;;;10.07;;
21543;SDS011;10933;50.754;11.508;2023-06-24T02:18:04;14.10;;;11.25;;
21543;SDS011;10933;50.754;11.508;2023-06-24T02:20:31;10.45;;;9.75;;
21543;SDS011;10933;50.754;11.508;2023-06-24T02:22:58;10.32;;;9.73;;
21543;SDS011;10933;50.754;11.508;2023-06-24T02:25:26;10.32;;;9.63;;
21543;SDS011;10933;50.754;11.508;2023-06-24T02:27:53;11.07;;;10.38;;
21543;SDS011;10933;50.754;11.508;2023-06-24T02:30:21;10.52;;;9.93;;
21543;SDS011;10933;50.754;11.508;2023-06-24T02:32:49;9.43;;;8.82;;
21543;SDS011;10933;50.754;11.508;2023-06-24T02:35:16;10.25;;;9.65;;
21543;SDS011;10933;50.754;11.508;2023-06-24T02:37:42;11.23;;;10.18;;
21543;SDS011;10933;50.754;11.508;2023-06-24T02:40:09;9.40;;;8.80;;
21543;SDS011;10933;50.754;11.508;2023-06-24T02:42:36;11.32;;;8.93;;
21543;SDS011;10933;50.754;11.508;2023-06-24T02:45:02;11.18;;;9.68;;
21543;SDS011;10933;50.754;11.508;2023-06-24T02:47:30;9.68;;;8.63;;
21543;SDS011;10933;50.754;11.508;2023-06-24T02:49:58;9.82;;;9.05;;
21543;SDS011;10933;50.754;11.508;2023-06-24T02:52:25;9.38;;;8.68;;
21543;SDS011;10933;50.754;11.508;2023-06-24T02:54:58;10.02;;;9.05;;
21543;SDS011;10933;50.754;11.508;2023-06-24T02:57:25;12.35;;;9.43;;
21543;SDS011;10933;50.754;11.508;2023-06-24T02:59:52;9.18;;;8.68;;
21543;SDS011;10933;50.754;11.508;2023-06-24T03:02:18;10.30;;;9.45;;
21543;SDS011;10933;50.754;11.508;2023-06-24T03:04:46;10.77;;;9.93;;
21543;SDS011;10933;50.754;11.508;2023-06-24T03:07:13;9.93;;;9.30;;
21543;SDS011;10933;50.754;11.508;2023-06-24T03:09:41;10.63;;;9.75;;
21543;SDS011;10933;50.754;11.508;2023-06-24T03:12:07;10.18;;;9.48;;
21543;SDS011;10933;50.754;11.508;2023-06-24T03:14:34;10.35;;;9.75;;
21543;SDS011;10933;50.754;11.508;2023-06-24T03:17:00;11.15;;;10.05;;
21543;SDS011;10933;50.754;11.508;2023-06-24T03:19:26;11.88;;;10.68;;
21543;SDS011;10933;50.754;11.508;2023-06-24T03:21:52;10.77;;;10.15;;
21543;SDS011;10933;50.754;11.508;2023-06-24T03:24:18;10.35;;;9.40;;
21543;SDS011;10933;50.754;11.508;2023-06-24T03:26:44;10.60;;;10.00;;
21543;SDS011;10933;50.754;11.508;2023-06-24T03:29:11;11.00;;;10.32;;
21543;SDS011;10933;50.754;11.508;2023-06-24T03:31:37;11.45;;;10.25;;
21543;SDS011;10933;50.754;11.508;2023-06-24T03:34:08;10.57;;;9.98;;
21543;SDS011;10933;50.754;11.508;2023-06-24T03:36:35;10.25;;;9.65;;
21543;SDS011;10933;50.754;11.508;2023-06-24T03:39:03;9.98;;;9.23;;
21543;SDS011;10933;50.754;11.508;2023-06-24T03:41:30;9.50;;;8.90;;
21543;SDS011;10933;50.754;11.508;2023-06-24T03:43:56;10.35;;;9.50;;
21543;SDS011;10933;50.754;11.508;2023-06-24T03:46:22;9.40;;;8.90;;
21543;SDS011;10933;50.754;11.508;2023-06-24T03:48:49;10.07;;;9.38;;
21543;SDS011;10933;50.754;11.508;2023-06-24T03:51:16;9.35;;;8.77;;
21543;SDS011;10933;50.754;11.508;2023-06-24T03:53:42;10.25;;;9.65;;
21543;SDS011;10933;50.754;11.508;2023-06-24T03:56:08;10.43;;;9.82;;
21543;SDS011;10933;50.754;11.508;2023-06-24T03:58:34;9.98;;;9.38;;
21543;SDS011;10933;50.754;11.508;2023-06-24T04:01:01;9.85;;;9.25;;
21543;SDS011;10933;50.754;11.508;2023-06-24T04:03:28;10.10;;;9.45;;
21543;SDS011;10933;50.754;11.508;2023-06-24T04:05:55;9.38;;;8.88;;
21543;SDS011;10933;50.754;11.508;2023-06-24T04:08:21;9.02;;;8.52;;
21543;SDS011;10933;50.754;11.508;2023-06-24T04:10:50;9.57;;;8.70;;
21543;SDS011;10933;50.754;11.508;2023-06-24T04:13:16;10.43;;;9.82;;
21543;SDS011;10933;50.754;11.508;2023-06-24T04:15:43;10.05;;;9.45;;
21543;SDS011;10933;50.754;11.508;2023-06-24T04:18:09;9.82;;;8.98;;
21543;SDS011;10933;50.754;11.508;2023-06-24T04:20:35;9.20;;;8.35;;
21543;SDS011;10933;50.754;11.508;2023-06-24T04:23:01;10.57;;;9.98;;
21543;SDS011;10933;50.754;11.508;2023-06-24T04:25:28;8.95;;;8.45;;
21543;SDS011;10933;50.754;11.508;2023-06-24T04:27:55;8.68;;;8.18;;
21543;SDS011;10933;50.754;11.508;2023-06-24T04:30:21;8.88;;;8.38;;
21543;SDS011;10933;50.754;11.508;2023-06-24T04:32:47;8.10;;;7.70;;
21543;SDS011;10933;50.754;11.508;2023-06-24T04:35:13;7.90;;;7.50;;
21543;SDS011;10933;50.754;11.508;2023-06-24T04:37:39;7.40;;;7.00;;
21543;SDS011;10933;50.754;11.508;2023-06-24T04:40:05;10.38;;;9.68;;
21543;SDS011;10933;50.754;11.508;2023-06-24T04:42:32;9.48;;;8.77;;
21543;SDS011;10933;50.754;11.508;2023-06-24T04:44:58;7.10;;;6.70;;
21543;SDS011;10933;50.754;11.508;2023-06-24T04:47:24;7.03;;;6.32;;
21543;SDS011;10933;50.754;11.508;2023-06-24T04:49:50;7.60;;;6.47;;
21543;SDS011;10933;50.754;11.508;2023-06-24T04:52:18;5.93;;;5.63;;
21543;SDS011;10933;50.754;11.508;2023-06-24T04:54:44;5.75;;;5.45;;
21543;SDS011;10933;50.754;11.508;2023-06-24T04:57:15;6.40;;;6.00;;
21543;SDS011;10933;50.754;11.508;2023-06-24T04:59:49;6.00;;;5.50;;
21543;SDS011;10933;50.754;11.508;2023-06-24T05:02:15;5.65;;;5.35;;
21543;SDS011;10933;50.754;11.508;2023-06-24T05:04:41;6.07;;;5.78;;
21543;SDS011;10933;50.754;11.508;2023-06-24T05:07:07;5.25;;;4.95;;
21543;SDS011;10933;50.754;11.508;2023-06-24T05:09:34;4.97;;;4.78;;
21543;SDS011;10933;50.754;11.508;2023-06-24T05:12:03;4.78;;;4.43;;
21543;SDS011;10933;50.754;11.508;2023-06-24T05:14:29;4.68;;;4.38;;
21543;SDS011;10933;50.754;11.508;2023-06-24T05:16:55;4.97;;;4.50;;
21543;SDS011;10933;50.754;11.508;2023-06-24T05:19:22;4.55;;;4.35;;
21543;SDS011;10933;50.754;11.508;2023-06-24T05:21:48;24.75;;;22.33;;
21543;SDS011;10933;50.754;11.508;2023-06-24T05:24:14;18.17;;;16.95;;
21543;SDS011;10933;50.754;11.508;2023-06-24T05:26:40;6.75;;;6.18;;
21543;SDS011;10933;50.754;11.508;2023-06-24T05:29:06;4.53;;;4.20;;
21543;SDS011;10933;50.754;11.508;2023-06-24T05:31:33;4.82;;;4.57;;
21543;SDS011;10933;50.754;11.508;2023-06-24T05:33:59;4.32;;;4.13;;
21543;SDS011;10933;50.754;11.508;2023-06-24T05:36:25;4.30;;;4.10;;
21543;SDS011;10933;50.754;11.508;2023-06-24T05:38:51;5.00;;;4.70;;
21543;SDS011;10933;50.754;11.508;2023-06-24T05:41:17;4.07;;;3.88;;
21543;SDS011;10933;50.754;11.508;2023-06-24T05:43:44;4.10;;;3.90;;
21543;SDS011;10933;50.754;11.508;2023-06-24T05:46:10;4.10;;;3.90;;
21543;SDS011;10933;50.754;11.508;2023-06-24T05:48:37;4.00;;;3.70;;
21543;SDS011;10933;50.754;11.508;2023-06-24T05:51:03;4.32;;;4.10;;
21543;SDS011;10933;50.754;11.508;2023-06-24T05:53:29;4.45;;;4.22;;
21543;SDS011;10933;50.754;11.508;2023-06-24T05:55:55;7.13;;;6.68;;
21543;SDS011;10933;50.754;11.508;2023-06-24T05:58:21;4.35;;;4.07;;
21543;SDS011;10933;50.754;11.508;2023-06-24T06:00:47;5.63;;;5.32;;
21543;SDS011;10933;50.754;11.508;2023-06-24T06:03:13;5.95;;;5.43;;
21543;SDS011;10933;50.754;11.508;2023-06-24T06:05:40;6.15;;;4.65;;
21543;SDS011;10933;50.754;11.508;2023-06-24T06:08:06;6.05;;;4.78;;
21543;SDS011;10933;50.754;11.508;2023-06-24T06:10:32;4.82;;;4.63;;
21543;SDS011;10933;50.754;11.508;2023-06-24T06:12:58;4.65;;;4.43;;
21543;SDS011;10933;50.754;11.508;2023-06-24T06:15:24;4.63;;;4.32;;
21543;SDS011;10933;50.754;11.508;2023-06-24T06:17:51;4.78;;;4.57;;
21543;SDS011;10933;50.754;11.508;2023-06-24T06:20:18;5.05;;;4.80;;
21543;SDS011;10933;50.754;11.508;2023-06-24T06:22:44;4.53;;;4.22;;
21543;SDS011;10933;50.754;11.508;2023-06-24T06:25:10;4.47;;;4.18;;
21543;SDS011;10933;50.754;11.508;2023-06-24T06:27:36;4.28;;;4.07;;
21543;SDS011;10933;50.754;11.508;2023-06-24T06:30:03;4.20;;;4.00;;
21543;SDS011;10933;50.754;11.508;2023-06-24T06:32:29;4.15;;;3.75;;
21543;SDS011;10933;50.754;11.508;2023-06-24T06:34:56;4.20;;;4.00;;
21543;SDS011;10933;50.754;11.508;2023-06-24T06:37:22;4.28;;;4.07;;
21543;SDS011;10933;50.754;11.508;2023-06-24T06:39:48;4.63;;;4.32;;
21543;SDS011;10933;50.754;11.508;2023-06-24T06:42:15;4.07;;;3.88;;
21543;SDS011;10933;50.754;11.508;2023-06-24T06:44:41;4.47;;;4.05;;
21543;SDS011;10933;50.754;11.508;2023-06-24T06:47:07;3.95;;;3.75;;
21543;SDS011;10933;50.754;11.508;2023-06-24T06:49:34;3.85;;;3.63;;
21543;SDS011;10933;50.754;11.508;2023-06-24T06:52:00;3.42;;;3.22;;
21543;SDS011;10933;50.754;11.508;2023-06-24T06:54:27;4.00;;;3.80;;
21543;SDS011;10933;50.754;11.508;2023-06-24T06:56:53;4.35;;;3.72;;
21543;SDS011;10933;50.754;11.508;2023-06-24T06:59:20;6.18;;;3.80;;
21543;SDS011;10933;50.754;11.508;2023-06-24T07:01:47;3.72;;;3.53;;
21543;SDS011;10933;50.754;11.508;2023-06-24T07:04:13;3.17;;;2.97;;
21543;SDS011;10933;50.754;11.508;2023-06-24T07:06:39;2.95;;;2.75;;
21543;SDS011;10933;50.754;11.508;2023-06-24T07:09:05;2.35;;;2.20;;
21543;SDS011;10933;50.754;11.508;2023-06-24T07:11:32;6.20;;;5.80;;
21543;SDS011;10933;50.754;11.508;2023-06-24T07:13:58;4.13;;;3.83;;
21543;SDS011;10933;50.754;11.508;2023-06-24T07:16:24;7.05;;;6.47;;
21543;SDS011;10933;50.754;11.508;2023-06-24T07:18:51;3.85;;;3.58;;
21543;SDS011;10933;50.754;11.508;2023-06-24T07:21:17;2.60;;;2.50;;
21543;SDS011;10933;50.754;11.508;2023-06-24T07:23:43;2.95;;;2.72;;
21543;SDS011;10933;50.754;11.508;2023-06-24T07:26:09;2.70;;;2.53;;
21543;SDS011;10933;50.754;11.508;2023-06-24T07:28:35;3.20;;;2.13;;
21543;SDS011;10933;50.754;11.508;2023-06-24T07:31:01;2.60;;;2.40;;
21543;SDS011;10933;50.754;11.508;2023-06-24T07:33:28;2.53;;;2.42;;
21543;SDS011;10933;50.754;11.508;2023-06-24T07:35:55;2.70;;;2.50;;
21543;SDS011;10933;50.754;11.508;2023-06-24T07:38:22;2.35;;;2.17;;
21543;SDS011;10933;50.754;11.508;2023-06-24T07:40:48;2.95;;;2.75;;
21543;SDS011;10933;50.754;11.508;2023-06-24T07:43:14;2.13;;;2.03;;
21543;SDS011;10933;50.754;11.508;2023-06-24T07:45:40;2.05;;;1.88;;
21543;SDS011;10933;50.754;11.508;2023-06-24T07:48:06;1.98;;;1.88;;
21543;SDS011;10933;50.754;11.508;2023-06-24T07:50:33;1.80;;;1.70;;
21543;SDS011;10933;50.754;11.508;2023-06-24T07:53:01;2.00;;;1.90;;
21543;SDS011;10933;50.754;11.508;2023-06-24T07:55:27;2.08;;;1.98;;
21543;SDS011;10933;50.754;11.508;2023-06-24T07:57:53;1.73;;;1.63;;
21543;SDS011;10933;50.754;11.508;2023-06-24T08:00:19;1.88;;;1.70;;
21543;SDS011;10933;50.754;11.508;2023-06-24T08:02:46;2.13;;;1.95;;
21543;SDS011;10933;50.754;11.508;2023-06-24T08:05:12;6.38;;;2.10;;
21543;SDS011;10933;50.754;11.508;2023-06-24T08:07:38;1.90;;;1.80;;
21543;SDS011;10933;50.754;11.508;2023-06-24T08:10:04;2.22;;;2.13;;
21543;SDS011;10933;50.754;11.508;2023-06-24T08:12:31;2.97;;;2.80;;
21543;SDS011;10933;50.754;11.508;2023-06-24T08:14:57;10.70;;;4.78;;
21543;SDS011;10933;50.754;11.508;2023-06-24T08:17:23;1.98;;;1.88;;
21543;SDS011;10933;50.754;11.508;2023-06-24T08:19:49;2.28;;;2.17;;
21543;SDS011;10933;50.754;11.508;2023-06-24T08:22:16;1.88;;;1.77;;
21543;SDS011;10933;50.754;11.508;2023-06-24T08:24:42;1.80;;;1.70;;
21543;SDS011;10933;50.754;11.508;2023-06-24T08:27:08;1.50;;;1.38;;
21543;SDS011;10933;50.754;11.508;2023-06-24T08:29:34;1.50;;;1.40;;
21543;SDS011;10933;50.754;11.508;2023-06-24T08:32:00;1.23;;;1.13;;
21543;SDS011;10933;50.754;11.508;2023-06-24T08:34:26;1.58;;;1.48;;
21543;SDS011;10933;50.754;11.508;2023-06-24T08:36:53;1.60;;;1.50;;
21543;SDS011;10933;50.754;11.508;2023-06-24T08:39:19;1.52;;;1.40;;
21543;SDS011;10933;50.754;11.508;2023-06-24T08:41:45;1.40;;;1.30;;
21543;SDS011;10933;50.754;11.508;2023-06-24T08:44:11;1.40;;;1.30;;
21543;SDS011;10933;50.754;11.508;2023-06-24T08:46:37;1.13;;;1.02;;
21543;SDS011;10933;50.754;11.508;2023-06-24T08:51:54;1.58;;;1.48;;
21543;SDS011;10933;50.754;11.508;2023-06-24T08:54:25;1.77;;;1.27;;
21543;SDS011;10933;50.754;11.508;2023-06-24T08:56:53;1.92;;;1.40;;
21543;SDS011;10933;50.754;11.508;2023-06-24T08:59:19;1.42;;;1.33;;
21543;SDS011;10933;50.754;11.508;2023-06-24T09:01:46;1.20;;;1.20;;
21543;SDS011;10933;50.754;11.508;2023-06-24T09:04:13;1.10;;;1.10;;
21543;SDS011;10933;50.754;11.508;2023-06-24T09:06:39;1.40;;;1.30;;
21543;SDS011;10933;50.754;11.508;2023-06-24T09:09:16;1.48;;;1.38;;
21543;SDS011;10933;50.754;11.508;2023-06-24T09:11:50;1.60;;;1.50;;
21543;SDS011;10933;50.754;11.508;2023-06-24T09:14:17;1.38;;;1.27;;
21543;SDS011;10933;50.754;11.508;2023-06-24T09:16:50;1.90;;;1.45;;
21543;SDS011;10933;50.754;11.508;2023-06-24T09:19:25;1.38;;;1.27;;
21543;SDS011;10933;50.754;11.508;2023-06-24T09:21:55;1.13;;;1.13;;
21543;SDS011;10933;50.754;11.508;2023-06-24T09:24:36;1.67;;;1.58;;
21543;SDS011;10933;50.754;11.508;2023-06-24T09:27:03;1.92;;;1.50;;
21543;SDS011;10933;50.754;11.508;2023-06-24T09:29:33;1.30;;;1.20;;
21543;SDS011;10933;50.754;11.508;2023-06-24T09:32:03;27.88;;;4.95;;
21543;SDS011;10933;50.754;11.508;2023-06-24T09:34:30;1.60;;;1.40;;
21543;SDS011;10933;50.754;11.508;2023-06-24T09:36:57;1.60;;;1.50;;
21543;SDS011;10933;50.754;11.508;2023-06-24T09:39:25;1.17;;;1.08;;
21543;SDS011;10933;50.754;11.508;2023-06-24T09:42:04;1.27;;;1.20;;
21543;SDS011;10933;50.754;11.508;2023-06-24T09:44:33;1.17;;;1.10;;
21543;SDS011;10933;50.754;11.508;2023-06-24T09:47:00;1.38;;;1.27;;
21543;SDS011;10933;50.754;11.508;2023-06-24T09:49:26;2.00;;;1.20;;
21543;SDS011;10933;50.754;11.508;2023-06-24T09:51:57;1.13;;;1.13;;
21543;SDS011;10933;50.754;11.508;2023-06-24T09:54:25;3.83;;;1.10;;
21543;SDS011;10933;50.754;11.508;2023-06-24T09:56:56;1.38;;;1.27;;
21543;SDS011;10933;50.754;11.508;2023-06-24T09:59:26;1.08;;;1.00;;
21543;SDS011;10933;50.754;11.508;2023-06-24T10:01:55;1.10;;;1.05;;
21543;SDS011;10933;50.754;11.508;2023-06-24T10:04:22;2.35;;;0.90;;
21543;SDS011;10933;50.754;11.508;2023-06-24T10:06:51;1.65;;;1.55;;
21543;SDS011;10933;50.754;11.508;2023-06-24T10:09:17;1.38;;;1.27;;
21543;SDS011;10933;50.754;11.508;2023-06-24T10:11:44;1.10;;;1.10;;
21543;SDS011;10933;50.754;11.508;2023-06-24T10:14:11;0.85;;;0.85;;
21543;SDS011;10933;50.754;11.508;2023-06-24T10:16:41;0.98;;;0.98;;
21543;SDS011;10933;50.754;11.508;2023-06-24T10:19:08;1.20;;;1.10;;
21543;SDS011;10933;50.754;11.508;2023-06-24T10:24:33;1.05;;;0.85;;
21543;SDS011;10933;50.754;11.508;2023-06-24T10:27:07;1.15;;;1.10;;
21543;SDS011;10933;50.754;11.508;2023-06-24T10:29:35;1.30;;;1.20;;
21543;SDS011;10933;50.754;11.508;2023-06-24T10:32:08;0.90;;;0.90;;
21543;SDS011;10933;50.754;11.508;2023-06-24T10:34:38;1.23;;;1.10;;
21543;SDS011;10933;50.754;11.508;2023-06-24T10:39:48;1.13;;;1.02;;
21543;SDS011;10933;50.754;11.508;2023-06-24T10:45:17;1.13;;;1.02;;
21543;SDS011;10933;50.754;11.508;2023-06-24T10:47:44;1.60;;;1.50;;
21543;SDS011;10933;50.754;11.508;2023-06-24T10:50:12;1.10;;;1.02;;
21543;SDS011;10933;50.754;11.508;2023-06-24T10:52:47;1.48;;;1.30;;
21543;SDS011;10933;50.754;11.508;2023-06-24T10:55:14;1.42;;;1.33;;
21543;SDS011;10933;50.754;11.508;2023-06-24T10:57:42;1.20;;;1.10;;
21543;SDS011;10933;50.754;11.508;2023-06-24T11:00:09;1.10;;;1.10;;
21543;SDS011;10933;50.754;11.508;2023-06-24T11:02:37;1.63;;;1.52;;
21543;SDS011;10933;50.754;11.508;2023-06-24T11:05:04;1.63;;;1.38;;
21543;SDS011;10933;50.754;11.508;2023-06-24T11:07:32;1.30;;;1.20;;
21543;SDS011;10933;50.754;11.508;2023-06-24T11:10:06;1.02;;;1.02;;
21543;SDS011;10933;50.754;11.508;2023-06-24T11:12:36;1.45;;;1.30;;
21543;SDS011;10933;50.754;11.508;2023-06-24T11:15:04;1.20;;;1.20;;
21543;SDS011;10933;50.754;11.508;2023-06-24T11:17:33;1.40;;;1.30;;
21543;SDS011;10933;50.754;11.508;2023-06-24T11:20:00;1.52;;;1.42;;
21543;SDS011;10933;50.754;11.508;2023-06-24T11:22:27;1.17;;;1.10;;
21543;SDS011;10933;50.754;11.508;2023-06-24T11:24:54;1.20;;;1.10;;
21543;SDS011;10933;50.754;11.508;2023-06-24T11:27:28;1.60;;;1.20;;
21543;SDS011;10933;50.754;11.508;2023-06-24T11:29:56;1.00;;;1.00;;
21543;SDS011;10933;50.754;11.508;2023-06-24T11:32:25;1.20;;;1.10;;
21543;SDS011;10933;50.754;11.508;2023-06-24T11:35:07;1.33;;;1.23;;
21543;SDS011;10933;50.754;11.508;2023-06-24T11:37:35;1.40;;;1.30;;
21543;SDS011;10933;50.754;11.508;2023-06-24T11:40:08;1.52;;;1.42;;
21543;SDS011;10933;50.754;11.508;2023-06-24T11:42:38;1.35;;;1.20;;
21543;SDS011;10933;50.754;11.508;2023-06-24T11:45:06;1.33;;;1.20;;
21543;SDS011;10933;50.754;11.508;2023-06-24T11:47:34;1.10;;;1.10;;
21543;SDS011;10933;50.754;11.508;2023-06-24T11:50:03;1.42;;;1.33;;
21543;SDS011;10933;50.754;11.508;2023-06-24T12:00:27;1.40;;;1.27;;
21543;SDS011;10933;50.754;11.508;2023-06-24T12:02:55;1.40;;;1.30;;
21543;SDS011;10933;50.754;11.508;2023-06-24T12:05:23;1.20;;;1.10;;
21543;SDS011;10933;50.754;11.508;2023-06-24T12:07:57;2.17;;;1.40;;
21543;SDS011;10933;50.754;11.508;2023-06-24T12:10:24;2.05;;;1.20;;
21543;SDS011;10933;50.754;11.508;2023-06-24T12:12:51;1.17;;;1.15;;
21543;SDS011;10933;50.754;11.508;2023-06-24T12:15:17;1.38;;;1.27;;
21543;SDS011;10933;50.754;11.508;2023-06-24T12:17:44;1.40;;;1.30;;
21543;SDS011;10933;50.754;11.508;2023-06-24T12:20:10;1.42;;;1.33;;
21543;SDS011;10933;50.754;11.508;2023-06-24T12:22:38;3.83;;;1.20;;
21543;SDS011;10933;50.754;11.508;2023-06-24T12:25:05;1.27;;;1.25;;
21543;SDS011;10933;50.754;11.508;2023-06-24T12:27:31;1.17;;;1.13;;
21543;SDS011;10933;50.754;11.508;2023-06-24T12:29:58;1.70;;;1.60;;
21543;SDS011;10933;50.754;11.508;2023-06-24T12:32:25;1.60;;;1.50;;
21543;SDS011;10933;50.754;11.508;2023-06-24T12:34:52;1.65;;;1.55;;
21543;SDS011;10933;50.754;11.508;2023-06-24T12:37:18;1.50;;;1.40;;
21543;SDS011;10933;50.754;11.508;2023-06-24T12:39:44;1.55;;;1.45;;
21543;SDS011;10933;50.754;11.508;2023-06-24T12:42:11;2.95;;;1.65;;
21543;SDS011;10933;50.754;11.508;2023-06-24T12:44:37;1.48;;;1.38;;
21543;SDS011;10933;50.754;11.508;2023-06-24T12:47:03;1.50;;;1.40;;
21543;SDS011;10933;50.754;11.508;2023-06-24T12:49:30;2.25;;;1.83;;
21543;SDS011;10933;50.754;11.508;2023-06-24T12:51:56;2.85;;;1.65;;
21543;SDS011;10933;50.754;11.508;2023-06-24T12:54:22;1.63;;;1.52;;
21543;SDS011;10933;50.754;11.508;2023-06-24T12:56:48;1.80;;;1.70;;
21543;SDS011;10933;50.754;11.508;2023-06-24T12:59:14;2.92;;;1.58;;
21543;SDS011;10933;50.754;11.508;2023-06-24T13:01:40;2.38;;;2.17;;
21543;SDS011;10933;50.754;11.508;2023-06-24T13:04:09;1.95;;;1.85;;
21543;SDS011;10933;50.754;11.508;2023-06-24T13:06:36;1.90;;;1.80;;
21543;SDS011;10933;50.754;11.508;2023-06-24T13:09:02;1.55;;;1.45;;
21543;SDS011;10933;50.754;11.508;2023-06-24T13:11:28;1.60;;;1.50;;
21543;SDS011;10933;50.754;11.508;2023-06-24T13:13:54;2.70;;;1.50;;
21543;SDS011;10933;50.754;11.508;2023-06-24T13:16:21;1.20;;;1.20;;
21543;SDS011;10933;50.754;11.508;2023-06-24T13:18:47;1.88;;;1.77;;
21543;SDS011;10933;50.754;11.508;2023-06-24T13:21:14;1.40;;;1.30;;
21543;SDS011;10933;50.754;11.508;2023-06-24T13:23:40;1.50;;;1.40;;
21543;SDS011;10933;50.754;11.508;2023-06-24T13:26:06;1.80;;;1.70;;
21543;SDS011;10933;50.754;11.508;2023-06-24T13:28:33;1.73;;;1.63;;
21543;SDS011;10933;50.754;11.508;2023-06-24T13:30:59;1.98;;;1.50;;
21543;SDS011;10933;50.754;11.508;2023-06-24T13:33:25;1.40;;;1.40;;
21543;SDS011;10933;50.754;11.508;2023-06-24T13:35:52;1.80;;;1.70;;
21543;SDS011;10933;50.754;11.508;2023-06-24T13:38:19;2.00;;;1.90;;
21543;SDS011;10933;50.754;11.508;2023-06-24T13:40:45;1.55;;;1.45;;
21543;SDS011;10933;50.754;11.508;2023-06-24T13:43:11;4.30;;;3.10;;
21543;SDS011;10933;50.754;11.508;2023-06-24T13:45:37;1.70;;;1.60;;
21543;SDS011;10933;50.754;11.508;2023-06-24T13:48:04;1.98;;;1.85;;
21543;SDS011;10933;50.754;11.508;2023-06-24T13:50:30;1.95;;;1.60;;
21543;SDS011;10933;50.754;11.508;2023-06-24T13:52:56;1.67;;;1.58;;
21543;SDS011;10933;50.754;11.508;2023-06-24T13:55:22;1.45;;;1.35;;
21543;SDS011;10933;50.754;11.508;2023-06-24T13:57:48;4.80;;;2.40;;
21543;SDS011;10933;50.754;11.508;2023-06-24T14:00:14;1.63;;;1.52;;
21543;SDS011;10933;50.754;11.508;2023-06-24T14:02:41;1.35;;;1.25;;
21543;SDS011;10933;50.754;11.508;2023-06-24T14:05:07;1.70;;;1.60;;
21543;SDS011;10933;50.754;11.508;2023-06-24T14:07:34;1.73;;;1.50;;
21543;SDS011;10933;50.754;11.508;2023-06-24T14:10:00;1.80;;;1.45;;
21543;SDS011;10933;50.754;11.508;2023-06-24T14:12:26;1.50;;;1.40;;
21543;SDS011;10933;50.754;11.508;2023-06-24T14:14:52;1.80;;;1.70;;
21543;SDS011;10933;50.754;11.508;2023-06-24T14:17:18;1.50;;;1.40;;
21543;SDS011;10933;50.754;11.508;2023-06-24T14:19:45;1.70;;;1.60;;
21543;SDS011;10933;50.754;11.508;2023-06-24T14:22:11;1.42;;;1.33;;
21543;SDS011;10933;50.754;11.508;2023-06-24T14:24:37;2.53;;;1.77;;
21543;SDS011;10933;50.754;11.508;2023-06-24T14:27:06;1.55;;;1.45;;
21543;SDS011;10933;50.754;11.508;2023-06-24T14:29:32;1.60;;;1.50;;
21543;SDS011;10933;50.754;11.508;2023-06-24T14:31:59;1.80;;;1.70;;
21543;SDS011;10933;50.754;11.508;2023-06-24T14:34:25;1.48;;;1.30;;
21543;SDS011;10933;50.754;11.508;2023-06-24T14:36:54;1.48;;;1.38;;
21543;SDS011;10933;50.754;11.508;2023-06-24T14:39:21;1.55;;;1.45;;
21543;SDS011;10933;50.754;11.508;2023-06-24T14:41:47;1.60;;;1.50;;
21543;SDS011;10933;50.754;11.508;2023-06-24T14:44:13;1.48;;;1.40;;
21543;SDS011;10933;50.754;11.508;2023-06-24T14:46:39;1.70;;;1.60;;
21543;SDS011;10933;50.754;11.508;2023-06-24T14:49:05;1.95;;;1.85;;
21543;SDS011;10933;50.754;11.508;2023-06-24T14:51:32;1.80;;;1.70;;
21543;SDS011;10933;50.754;11.508;2023-06-24T14:53:58;1.70;;;1.60;;
21543;SDS011;10933;50.754;11.508;2023-06-24T14:56:24;3.45;;;1.73;;
21543;SDS011;10933;50.754;11.508;2023-06-24T14:58:50;1.70;;;1.60;;